createdAt,value
2022-08-11T00:02:04.624Z,0.50
2022-08-11T00:04:39.358Z,0.50
2022-08-11T00:07:11.048Z,0.60
2022-08-11T00:09:42.129Z,0.60
2022-08-11T00:12:18.103Z,0.47
2022-08-11T00:14:51.837Z,0.70
2022-08-11T00:17:23.137Z,0.60
2022-08-11T00:20:14.171Z,0.50
2022-08-11T00:22:26.073Z,0.40
2022-08-11T00:25:01.548Z,0.40
2022-08-11T00:27:37.128Z,0.50
2022-08-11T00:30:10.504Z,0.40
2022-08-11T00:32:44.042Z,0.50
2022-08-11T00:35:51.906Z,0.40
2022-08-11T00:37:55.589Z,0.50
2022-08-11T00:41:02.119Z,0.60
2022-08-11T00:44:09.860Z,0.60
2022-08-11T00:47:04.603Z,0.53
2022-08-11T00:50:00.808Z,0.80
2022-08-11T00:52:34.912Z,0.50
2022-08-11T00:55:47.115Z,0.33
2022-08-11T00:58:57.954Z,0.80
2022-08-11T01:01:51.486Z,0.50
2022-08-11T01:04:40.968Z,0.50
2022-08-11T01:08:01.418Z,0.33
2022-08-11T01:10:05.058Z,0.60
2022-08-11T01:12:52.437Z,0.70
2022-08-11T01:16:16.184Z,0.40
2022-08-11T01:19:02.269Z,0.40
2022-08-11T01:21:58.016Z,0.40
2022-08-11T01:24:58.846Z,0.63
2022-08-11T01:27:50.408Z,0.70
2022-08-11T01:30:42.751Z,0.60
2022-08-11T01:33:56.774Z,0.67
2022-08-11T01:36:45.883Z,0.77
2022-08-11T01:39:30.517Z,0.80
2022-08-11T01:42:43.605Z,0.70
2022-08-11T01:45:32.511Z,0.73
2022-08-11T01:48:23.928Z,0.50
2022-08-11T01:51:17.139Z,0.60
2022-08-11T01:54:03.856Z,0.60
2022-08-11T01:57:01.745Z,0.83
2022-08-11T01:59:50.749Z,0.70
2022-08-11T02:02:30.465Z,0.60
2022-08-11T02:05:22.350Z,0.53
2022-08-11T02:08:14.583Z,0.30
2022-08-11T02:11:23.281Z,0.60
2022-08-11T02:14:40.421Z,0.50
2022-08-11T02:17:26.102Z,1.87
2022-08-11T02:20:38.543Z,1.50
2022-08-11T02:24:05.324Z,1.10
2022-08-11T02:26:26.851Z,0.70
2022-08-11T02:29:21.638Z,0.63
2022-08-11T02:32:33.926Z,0.43
2022-08-11T02:35:32.866Z,0.60
2022-08-11T02:38:39.585Z,0.73
2022-08-11T02:42:03.448Z,0.80
2022-08-11T02:44:51.911Z,0.60
2022-08-11T02:48:13.621Z,0.77
2022-08-11T02:51:10.526Z,0.70
2022-08-11T02:54:05.580Z,0.40
2022-08-11T02:57:18.005Z,0.50
2022-08-11T02:59:58.076Z,0.63
2022-08-11T03:02:53.668Z,0.43
2022-08-11T03:06:06.990Z,0.70
2022-08-11T03:08:41.088Z,0.57
2022-08-11T03:11:55.697Z,0.70
2022-08-11T03:14:56.497Z,0.67
2022-08-11T03:17:44.707Z,0.63
2022-08-11T03:20:24.267Z,0.53
2022-08-11T03:22:58.376Z,0.70
2022-08-11T03:25:59.472Z,0.63
2022-08-11T03:28:39.517Z,0.70
2022-08-11T03:31:37.080Z,0.60
2022-08-11T03:34:20.466Z,0.87
2022-08-11T03:37:17.646Z,0.50
2022-08-11T03:40:15.273Z,0.80
2022-08-11T03:43:01.062Z,0.70
2022-08-11T03:46:12.659Z,0.70
2022-08-11T03:48:52.465Z,0.90
2022-08-11T03:51:44.693Z,0.60
2022-08-11T03:54:22.916Z,0.80
2022-08-11T03:57:21.183Z,0.70
2022-08-11T04:00:31.713Z,0.60
2022-08-11T04:03:31.381Z,0.77
2022-08-11T04:06:28.491Z,0.93
2022-08-11T04:09:05.044Z,0.80
2022-08-11T04:12:08.087Z,1.00
2022-08-11T04:15:28.811Z,0.90
2022-08-11T04:18:28.296Z,0.80
2022-08-11T04:21:08.090Z,0.90
2022-08-11T04:24:35.833Z,0.83
2022-08-11T04:27:14.138Z,0.60
2022-08-11T04:30:13.273Z,0.60
2022-08-11T04:33:40.917Z,0.70
2022-08-11T04:36:32.251Z,0.67
2022-08-11T04:39:45.922Z,0.70
2022-08-11T04:42:41.160Z,0.73
2022-08-11T04:45:59.372Z,1.00
2022-08-11T04:49:41.364Z,0.67
2022-08-11T04:53:03.217Z,0.80
2022-08-11T04:56:06.278Z,0.80
2022-08-11T04:59:50.246Z,0.87
2022-08-11T05:02:44.005Z,1.00
2022-08-11T05:05:56.332Z,0.80
2022-08-11T05:09:00.096Z,1.10
2022-08-11T05:12:11.792Z,1.10
2022-08-11T05:15:13.780Z,1.17
2022-08-11T05:18:14.407Z,0.80
2022-08-11T05:21:14.793Z,0.93
2022-08-11T05:24:06.731Z,1.03
2022-08-11T05:27:12.808Z,0.70
2022-08-11T05:30:07.232Z,0.70
2022-08-11T05:33:02.415Z,0.93
2022-08-11T05:36:02.227Z,1.13
2022-08-11T05:38:46.551Z,0.87
2022-08-11T05:41:36.151Z,1.00
2022-08-11T05:44:24.917Z,1.07
2022-08-11T05:47:13.467Z,0.87
2022-08-11T05:50:02.939Z,1.33
2022-08-11T05:52:56.722Z,1.27
2022-08-11T05:55:51.045Z,1.13
2022-08-11T05:58:14.267Z,1.20
2022-08-11T06:00:47.464Z,0.97
2022-08-11T06:03:30.092Z,1.30
2022-08-11T06:06:01.358Z,1.13
2022-08-11T06:08:38.363Z,1.30
2022-08-11T06:11:08.554Z,0.90
2022-08-11T06:13:41.661Z,0.90
2022-08-11T06:16:12.853Z,1.03
2022-08-11T06:18:48.391Z,1.00
2022-08-11T06:21:19.394Z,1.00
2022-08-11T06:23:50.086Z,1.10
2022-08-11T06:26:20.486Z,1.17
2022-08-11T06:28:50.985Z,1.40
2022-08-11T06:31:25.123Z,1.30
2022-08-11T06:34:27.066Z,1.70
2022-08-11T06:37:00.789Z,1.50
2022-08-11T06:40:00.587Z,1.43
2022-08-11T06:42:46.673Z,1.30
2022-08-11T06:45:29.148Z,1.50
2022-08-11T06:48:03.215Z,1.30
2022-08-11T06:50:52.381Z,1.20
2022-08-11T06:53:23.070Z,1.17
2022-08-11T06:56:10.531Z,1.40
2022-08-11T06:59:00.307Z,1.20
2022-08-11T07:01:59.972Z,1.43
2022-08-11T07:04:51.738Z,1.20
2022-08-11T07:08:33.227Z,1.17
2022-08-11T07:11:38.009Z,1.10
2022-08-11T07:14:27.055Z,1.60
2022-08-11T07:16:59.466Z,1.57
2022-08-11T07:19:50.504Z,1.57
2022-08-11T07:22:42.700Z,1.53
2022-08-11T07:25:36.993Z,1.33
2022-08-11T07:28:34.890Z,1.77
2022-08-11T07:31:09.124Z,1.80
2022-08-11T07:34:08.053Z,1.60
2022-08-11T07:36:31.542Z,1.60
2022-08-11T07:39:02.535Z,1.80
2022-08-11T07:41:35.282Z,1.90
2022-08-11T07:44:11.683Z,1.80
2022-08-11T07:47:09.341Z,1.47
2022-08-11T07:49:59.549Z,1.60
2022-08-11T07:52:34.202Z,1.80
2022-08-11T07:55:19.658Z,1.70
2022-08-11T07:58:19.182Z,1.50
2022-08-11T08:01:01.750Z,1.73
2022-08-11T08:03:53.977Z,1.70
2022-08-11T08:06:41.612Z,1.80
2022-08-11T08:09:30.553Z,1.80
2022-08-11T08:12:21.274Z,1.40
2022-08-11T08:15:11.048Z,2.17
2022-08-11T08:18:09.596Z,1.83
2022-08-11T08:20:32.415Z,1.60
2022-08-11T08:23:04.681Z,1.90
2022-08-11T08:25:39.371Z,1.67
2022-08-11T08:28:18.553Z,1.70
2022-08-11T08:30:51.383Z,1.40
2022-08-11T08:33:30.393Z,1.50
2022-08-11T08:36:12.784Z,1.20
2022-08-11T08:38:46.967Z,1.30
2022-08-11T08:41:33.257Z,1.60
2022-08-11T08:44:36.739Z,1.70
2022-08-11T08:46:46.065Z,1.30
2022-08-11T08:49:20.485Z,1.50
2022-08-11T08:52:01.643Z,1.30
2022-08-11T08:54:34.108Z,1.30
2022-08-11T08:57:06.822Z,1.57
2022-08-11T08:59:48.733Z,1.90
2022-08-11T09:02:14.193Z,1.60
2022-08-11T09:04:47.895Z,2.00
2022-08-11T09:07:21.988Z,1.80
2022-08-11T09:09:54.786Z,1.60
2022-08-11T09:12:35.860Z,1.87
2022-08-11T09:15:03.931Z,1.33
2022-08-11T09:17:49.717Z,1.80
2022-08-11T09:20:29.385Z,1.60
2022-08-11T09:26:18.809Z,1.53
2022-08-11T09:28:51.330Z,1.87
2022-08-11T09:31:22.947Z,1.83
2022-08-11T09:33:56.092Z,1.33
2022-08-11T09:36:43.664Z,1.30
2022-08-11T09:39:33.971Z,1.70
2022-08-11T09:42:05.686Z,1.60
2022-08-11T09:44:52.737Z,1.90
2022-08-11T09:47:31.741Z,1.50
2022-08-11T09:50:03.582Z,1.50
2022-08-11T09:52:37.790Z,1.70
2022-08-11T09:55:10.352Z,1.30
2022-08-11T09:58:06.327Z,1.10
2022-08-11T10:00:40.225Z,1.40
2022-08-11T10:03:26.337Z,1.30
2022-08-11T10:06:20.798Z,1.10
2022-08-11T10:08:55.340Z,1.50
2022-08-11T10:11:27.007Z,1.50
2022-08-11T10:14:32.910Z,1.63
2022-08-11T10:16:49.252Z,1.33
2022-08-11T10:19:22.181Z,1.30
2022-08-11T10:22:13.316Z,1.50
2022-08-11T10:25:03.613Z,1.40
2022-08-11T10:27:55.206Z,1.37
2022-08-11T10:30:23.165Z,1.80
2022-08-11T10:33:02.541Z,1.53
2022-08-11T10:35:35.290Z,1.80
2022-08-11T10:38:07.251Z,1.40
2022-08-11T10:40:38.245Z,1.60
2022-08-11T10:43:11.168Z,1.20
2022-08-11T10:48:15.627Z,1.03
2022-08-11T10:51:06.637Z,1.30
2022-08-11T10:53:58.096Z,0.90
2022-08-11T10:56:49.810Z,1.10
2022-08-11T10:59:20.317Z,1.23
2022-08-11T11:01:52.026Z,1.60
2022-08-11T11:04:26.129Z,1.57
2022-08-11T11:07:22.912Z,1.43
2022-08-11T11:10:01.946Z,1.20
2022-08-11T11:12:59.331Z,1.23
2022-08-11T11:15:50.900Z,1.10
2022-08-11T11:18:28.851Z,1.43
2022-08-11T11:21:12.370Z,1.40
2022-08-11T11:24:01.400Z,1.50
2022-08-11T11:26:43.576Z,1.17
2022-08-11T11:29:32.812Z,1.20
2022-08-11T11:32:12.696Z,1.13
2022-08-11T11:35:10.910Z,1.00
2022-08-11T11:38:04.525Z,1.17
2022-08-11T11:40:17.530Z,1.60
2022-08-11T11:42:48.736Z,1.83
2022-08-11T11:45:27.832Z,1.30
2022-08-11T11:48:00.220Z,1.50
2022-08-11T11:50:39.514Z,1.30
2022-08-11T11:53:12.818Z,1.20
2022-08-11T11:55:44.321Z,1.10
2022-08-11T11:58:33.273Z,1.30
2022-08-11T12:01:17.938Z,1.10
2022-08-11T12:03:51.496Z,1.20
2022-08-11T12:06:25.280Z,1.13
2022-08-11T12:08:58.545Z,1.00
2022-08-11T12:11:48.764Z,1.40
2022-08-11T12:14:24.446Z,0.80
2022-08-11T12:16:56.112Z,1.07
2022-08-11T12:19:35.769Z,1.30
2022-08-11T12:22:20.749Z,1.00
2022-08-11T12:25:09.077Z,1.40
2022-08-11T12:27:40.749Z,1.17
2022-08-11T12:30:11.057Z,1.20
2022-08-11T12:32:43.570Z,1.50
2022-08-11T12:35:17.037Z,1.20
2022-08-11T12:38:03.692Z,1.03
2022-08-11T12:41:16.046Z,1.87
2022-08-11T12:43:40.774Z,1.30
2022-08-11T12:46:15.098Z,1.50
2022-08-11T12:49:07.337Z,1.47
2022-08-11T12:52:14.396Z,1.30
2022-08-11T12:54:59.134Z,1.67
2022-08-11T12:57:57.254Z,1.20
2022-08-11T13:00:48.373Z,1.20
2022-08-11T13:03:39.550Z,1.40
2022-08-11T13:06:10.760Z,1.40
2022-08-11T13:08:43.067Z,1.23
2022-08-11T13:11:56.576Z,1.40
2022-08-11T13:14:04.040Z,1.10
2022-08-11T13:16:39.031Z,1.07
2022-08-11T13:19:10.657Z,1.73
2022-08-11T13:21:40.207Z,1.33
2022-08-11T13:24:10.250Z,1.53
2022-08-11T13:26:47.050Z,1.80
2022-08-11T13:29:14.947Z,1.10
2022-08-11T13:31:44.875Z,1.00
2022-08-11T13:34:15.984Z,1.50
2022-08-11T13:36:47.125Z,1.50
2022-08-11T13:39:17.307Z,1.40
2022-08-11T13:41:47.905Z,1.03
2022-08-11T13:44:25.342Z,1.03
2022-08-11T13:46:52.898Z,0.90
2022-08-11T13:49:24.177Z,1.10
2022-08-11T13:51:56.203Z,1.30
2022-08-11T13:54:30.531Z,1.40
2022-08-11T13:57:13.663Z,1.20
2022-08-11T13:59:52.543Z,1.50
2022-08-11T14:02:28.814Z,1.30
2022-08-11T14:05:07.147Z,1.40
2022-08-11T14:07:44.280Z,1.80
2022-08-11T14:10:17.264Z,1.63
2022-08-11T14:13:18.147Z,1.37
2022-08-11T14:15:50.946Z,0.90
2022-08-11T14:18:27.629Z,1.90
2022-08-11T14:21:21.840Z,1.30
2022-08-11T14:23:57.944Z,1.10
2022-08-11T14:26:33.148Z,1.13
2022-08-11T14:29:08.328Z,1.20
2022-08-11T14:31:42.133Z,1.13
2022-08-11T14:34:14.611Z,1.03
2022-08-11T14:36:52.278Z,1.57
2022-08-11T14:39:26.270Z,1.47
2022-08-11T14:42:22.042Z,1.17
2022-08-11T14:45:16.353Z,1.10
2022-08-11T14:47:59.321Z,0.80
2022-08-11T14:50:32.119Z,1.00
2022-08-11T14:53:06.091Z,1.10
2022-08-11T14:55:57.989Z,1.40
2022-08-11T14:58:31.195Z,1.17
2022-08-11T15:01:03.838Z,1.43
2022-08-11T15:03:34.914Z,1.33
2022-08-11T15:06:05.609Z,0.90
2022-08-11T15:08:56.512Z,1.23
2022-08-11T15:11:49.984Z,0.90
2022-08-11T15:14:22.322Z,1.23
2022-08-11T15:17:09.673Z,1.20
2022-08-11T15:19:48.176Z,1.00
2022-08-11T15:22:27.896Z,0.90
2022-08-11T15:24:56.370Z,0.90
2022-08-11T15:27:44.778Z,1.00
2022-08-11T15:30:34.195Z,1.03
2022-08-11T15:33:28.928Z,1.40
2022-08-11T15:36:18.261Z,1.57
2022-08-11T15:38:55.775Z,1.27
2022-08-11T15:41:58.882Z,1.23
2022-08-11T15:45:06.277Z,0.97
2022-08-11T15:47:27.029Z,1.10
2022-08-11T15:50:12.077Z,0.90
2022-08-11T15:52:39.241Z,0.80
2022-08-11T15:55:11.350Z,0.90
2022-08-11T15:58:00.390Z,0.73
2022-08-11T16:00:48.916Z,1.40
2022-08-11T16:03:25.588Z,1.00
2022-08-11T16:05:57.685Z,1.00
2022-08-11T16:08:33.190Z,0.70
2022-08-11T16:11:01.625Z,0.80
2022-08-11T16:13:37.478Z,0.80
2022-08-11T16:16:15.382Z,0.87
2022-08-11T16:18:57.702Z,1.00
2022-08-11T16:21:38.874Z,0.90
2022-08-11T16:27:06.206Z,0.87
2022-08-11T16:27:10.281Z,0.70
2022-08-11T16:29:25.225Z,0.80
2022-08-11T16:32:14.860Z,0.77
2022-08-11T16:35:08.486Z,1.00
2022-08-11T16:37:57.646Z,0.60
2022-08-11T16:40:29.427Z,0.77
2022-08-11T16:43:18.451Z,0.77
2022-08-11T16:46:07.497Z,0.80
2022-08-11T16:48:39.913Z,1.10
2022-08-11T16:51:13.607Z,0.90
2022-08-11T16:54:03.573Z,0.90
2022-08-11T16:56:21.975Z,0.80
2022-08-11T16:59:17.713Z,1.00
2022-08-11T17:02:00.786Z,0.70
2022-08-11T17:05:07.395Z,0.60
2022-08-11T17:08:01.288Z,0.70
2022-08-11T17:10:56.471Z,0.70
2022-08-11T17:13:28.937Z,0.70
2022-08-11T17:16:10.770Z,0.83
2022-08-11T17:19:02.679Z,0.73
2022-08-11T17:21:43.958Z,0.63
2022-08-11T17:24:16.043Z,0.73
2022-08-11T17:26:55.735Z,0.77
2022-08-11T17:29:53.686Z,0.70
2022-08-11T17:32:56.482Z,0.80
2022-08-11T17:35:31.632Z,0.57
2022-08-11T17:38:14.872Z,0.77
2022-08-11T17:41:09.793Z,0.60
2022-08-11T17:44:00.124Z,0.63
2022-08-11T17:46:48.721Z,0.60
2022-08-11T17:49:21.315Z,0.50
2022-08-11T17:52:09.960Z,0.57
2022-08-11T17:55:01.905Z,0.50
2022-08-11T17:57:51.003Z,0.47
2022-08-11T18:00:20.566Z,0.60
2022-08-11T18:03:09.737Z,0.70
2022-08-11T18:05:43.685Z,0.63
2022-08-11T18:08:32.997Z,0.60
2022-08-11T18:12:06.454Z,0.50
2022-08-11T18:14:14.924Z,0.30
2022-08-11T18:17:05.640Z,0.30
2022-08-11T18:19:51.629Z,0.40
2022-08-11T18:22:43.583Z,0.40
2022-08-11T18:25:41.994Z,0.70
2022-08-11T18:28:30.777Z,0.47
2022-08-11T18:31:21.762Z,0.30
2022-08-11T18:34:16.353Z,0.43
2022-08-11T18:37:27.172Z,0.40
2022-08-11T18:40:19.774Z,0.53
2022-08-11T18:43:10.256Z,0.50
2022-08-11T18:46:06.534Z,0.50
2022-08-11T18:48:58.688Z,0.40
2022-08-11T18:51:48.062Z,0.60
2022-08-11T18:54:38.145Z,0.73
2022-08-11T18:57:27.895Z,0.57
2022-08-11T19:00:21.113Z,0.50
2022-08-11T19:03:10.460Z,0.50
2022-08-11T19:06:31.626Z,0.50
2022-08-11T19:08:57.014Z,0.50
2022-08-11T19:11:48.251Z,0.57
2022-08-11T19:14:39.725Z,0.40
2022-08-11T19:17:43.779Z,0.50
2022-08-11T19:20:20.667Z,0.50
2022-08-11T19:23:11.020Z,0.53
2022-08-11T19:26:01.252Z,0.40
2022-08-11T19:28:50.784Z,0.50
2022-08-11T19:31:44.320Z,0.53
2022-08-11T19:34:31.916Z,0.47
2022-08-11T19:37:24.065Z,0.40
2022-08-11T19:40:09.962Z,0.40
2022-08-11T19:42:59.755Z,0.50
2022-08-11T19:45:52.496Z,0.40
2022-08-11T19:48:42.537Z,0.40
2022-08-11T19:51:32.026Z,0.40
2022-08-11T19:54:21.363Z,0.40
2022-08-11T19:57:10.748Z,0.30
2022-08-11T19:59:59.236Z,0.50
2022-08-11T20:02:48.169Z,0.40
2022-08-11T20:05:35.616Z,0.60
2022-08-11T20:08:25.272Z,0.50
2022-08-11T20:11:15.727Z,0.50
2022-08-11T20:14:04.825Z,0.50
2022-08-11T20:16:52.895Z,0.57
2022-08-11T20:19:56.084Z,0.40
2022-08-11T20:22:34.956Z,0.40
2022-08-11T20:25:25.181Z,0.50
2022-08-11T20:28:14.637Z,0.60
2022-08-11T20:31:05.358Z,0.40
2022-08-11T20:33:54.372Z,0.50
2022-08-11T20:36:42.659Z,0.50
2022-08-11T20:39:32.125Z,0.40
2022-08-11T20:42:22.239Z,0.40
2022-08-11T20:45:11.539Z,0.37
2022-08-11T20:48:00.790Z,0.30
2022-08-11T20:50:52.482Z,0.40
2022-08-11T20:53:42.021Z,0.50
2022-08-11T20:56:30.504Z,0.40
2022-08-11T20:59:21.834Z,0.40
2022-08-11T21:02:12.142Z,0.40
2022-08-11T21:05:00.778Z,0.57
2022-08-11T21:07:58.936Z,0.60
2022-08-11T21:10:52.347Z,0.43
2022-08-11T21:13:43.647Z,0.50
2022-08-11T21:16:37.469Z,0.53
2022-08-11T21:20:00.417Z,0.57
2022-08-11T21:22:22.096Z,0.80
2022-08-11T21:25:14.163Z,0.60
2022-08-11T21:28:03.385Z,0.60
2022-08-11T21:30:57.373Z,0.40
2022-08-11T21:33:41.277Z,0.60
2022-08-11T21:36:29.811Z,0.50
2022-08-11T21:39:17.955Z,0.47
2022-08-11T21:42:08.142Z,0.60
2022-08-11T21:44:58.534Z,0.80
2022-08-11T21:47:47.520Z,0.53
2022-08-11T21:50:35.399Z,0.70
2022-08-11T21:53:24.500Z,0.33
2022-08-11T21:56:12.537Z,0.50
2022-08-11T21:59:07.371Z,0.60
2022-08-11T22:01:53.801Z,0.50
2022-08-11T22:04:42.859Z,0.93
2022-08-11T22:07:31.272Z,1.53
2022-08-11T22:10:41.464Z,1.30
2022-08-11T22:13:11.092Z,0.70
2022-08-11T22:15:59.756Z,0.87
2022-08-11T22:18:47.705Z,0.77
2022-08-11T22:22:03.974Z,0.40
2022-08-11T22:24:30.084Z,0.60
2022-08-11T22:27:16.417Z,0.50
2022-08-11T22:30:04.109Z,0.57
2022-08-11T22:32:51.932Z,0.47
2022-08-11T22:35:39.364Z,0.50
2022-08-11T22:38:28.265Z,0.40
2022-08-11T22:41:15.546Z,0.40
2022-08-11T22:44:02.882Z,0.40
2022-08-11T22:46:52.573Z,0.50
2022-08-11T22:49:56.184Z,0.53
2022-08-11T22:52:33.029Z,0.50
2022-08-11T22:55:21.213Z,0.50
2022-08-11T22:58:09.887Z,0.70
2022-08-11T23:00:58.188Z,0.53
2022-08-11T23:03:47.237Z,0.50
2022-08-11T23:06:35.400Z,0.70
2022-08-11T23:09:25.391Z,0.40
2022-08-11T23:12:13.458Z,0.60
2022-08-11T23:15:02.801Z,0.60
2022-08-11T23:17:51.731Z,0.50
2022-08-11T23:20:45.872Z,0.40
2022-08-11T23:23:30.640Z,0.50
2022-08-11T23:26:19.091Z,0.33
2022-08-11T23:29:06.619Z,0.50
2022-08-11T23:31:57.365Z,0.50
2022-08-11T23:35:36.876Z,0.50
2022-08-11T23:37:46.898Z,0.43
2022-08-11T23:40:34.319Z,0.62
2022-08-11T23:43:22.333Z,0.50
2022-08-11T23:46:09.306Z,0.37
2022-08-11T23:48:58.837Z,0.40
2022-08-11T23:51:47.964Z,0.50
2022-08-11T23:54:37.581Z,0.60
2022-08-11T23:57:25.212Z,0.50
